Time;durP1;ratioP1;P1;durP2;ratioP2;P2;SDS_P1;SDS_P2;PMS_P1;PMS_P2;Temp;Humidity;BMP_temperature;BMP_pressure;BME280_temperature;BME280_humidity;BME280_pressure;Samples;Min_cycle;Max_cycle;Signal;HPM_P1;HPM_P2
2022/01/14 00:01:34;;;;;;;13.32;5.18;;;;;;;5.09;100.00;103509.97;4914580;29;20055;-79
2022/01/14 00:04:00;;;;;;;14.57;5.65;;;;;;;5.19;100.00;103518.41;4902065;29;20420;-79
2022/01/14 00:06:25;;;;;;;15.13;5.47;;;;;;;5.20;100.00;103522.75;4908505;29;20544;-80
2022/01/14 00:08:54;;;;;;;13.52;6.30;;;;;;;5.09;100.00;103494.28;4909191;29;20032;-79
2022/01/14 00:11:19;;;;;;;14.60;6.55;;;;;;;5.21;100.00;103517.47;4899348;29;20047;-80
2022/01/14 00:16:10;;;;;;;14.65;6.45;;;;;;;5.17;100.00;103502.75;4905487;29;20040;-79
2022/01/14 00:18:35;;;;;;;12.45;6.53;;;;;;;5.26;100.00;103520.78;4909165;29;20094;-79
2022/01/14 00:21:01;;;;;;;9.70;6.07;;;;;;;5.22;100.00;103515.69;4914765;29;20566;-80
2022/01/14 00:23:31;;;;;;;14.43;6.88;;;;;;;5.15;100.00;103496.72;4914445;29;20040;-79
2022/01/14 00:31:47;;;;;;;22.48;7.32;;;;;;;5.25;100.00;103503.38;4913939;29;20043;-80
2022/01/14 00:34:14;;;;;;;12.73;5.70;;;;;;;5.26;100.00;103507.69;4928488;29;20038;-79
2022/01/14 00:36:40;;;;;;;19.27;6.97;;;;;;;5.23;100.00;103502.56;4916506;29;20408;-79
2022/01/14 00:39:08;;;;;;;11.80;6.22;;;;;;;5.10;100.00;103475.06;4926979;29;20038;-80
2022/01/14 00:41:35;;;;;;;11.98;5.88;;;;;;;5.11;100.00;103476.75;4910807;29;20088;-79
2022/01/14 00:44:03;;;;;;;15.32;6.35;;;;;;;5.21;100.00;103495.66;4925117;29;20035;-80
2022/01/14 00:46:29;;;;;;;15.95;7.47;;;;;;;5.20;100.00;103494.78;4927307;29;20067;-79
2022/01/14 00:48:56;;;;;;;10.70;7.25;;;;;;;5.20;100.00;103502.63;4906097;29;20372;-79
2022/01/14 00:51:21;;;;;;;16.10;7.35;;;;;;;5.11;100.00;103482.00;4923808;29;20115;-80
2022/01/14 00:53:47;;;;;;;14.45;6.75;;;;;;;5.19;100.00;103492.25;4909431;29;20115;-80
2022/01/14 01:01:34;;;;;;;18.83;7.38;;;;;;;5.19;100.00;103495.72;4924142;29;20523;-79
2022/01/14 01:04:00;;;;;;;17.17;6.68;;;;;;;5.15;100.00;103491.47;4900922;29;20131;-80
2022/01/14 01:06:26;;;;;;;16.42;7.85;;;;;;;5.13;100.00;103480.19;4915419;29;20507;-79
2022/01/14 01:08:53;;;;;;;13.90;6.78;;;;;;;5.22;100.00;103490.34;4897120;29;20035;-79
2022/01/14 01:11:24;;;;;;;12.10;6.05;;;;;;;5.10;100.00;103475.06;4930087;29;20027;-79
2022/01/14 01:14:00;;;;;;;15.60;7.45;;;;;;;5.17;100.00;103499.28;4900629;29;20043;-80
2022/01/14 01:16:26;;;;;;;24.85;7.35;;;;;;;5.18;100.00;103509.69;4902489;29;20084;-79
2022/01/14 01:18:51;;;;;;;20.13;8.73;;;;;;;5.21;100.00;103512.22;4915541;29;20122;-79
2022/01/14 01:21:16;;;;;;;16.83;6.82;;;;;;;5.20;100.00;103507.88;4906890;29;20020;-79
2022/01/14 01:23:42;;;;;;;15.13;7.93;;;;;;;5.17;100.00;103487.03;4900684;29;20044;-80
2022/01/14 01:26:16;;;;;;;20.33;7.95;;;;;;;5.13;100.00;103475.81;4914025;29;20037;-79
2022/01/14 01:31:35;;;;;;;15.18;6.80;;;;;;;5.00;100.00;103458.78;4911304;29;20058;-80
2022/01/14 01:34:08;;;;;;;11.68;6.47;;;;;;;5.09;100.00;103475.97;4917670;29;20480;-79
2022/01/14 01:36:34;;;;;;;15.95;6.47;;;;;;;5.05;100.00;103471.72;4925650;29;20450;-79
2022/01/14 01:39:00;;;;;;;14.10;7.10;;;;;;;4.93;100.00;103462.50;4923675;29;20463;-80
2022/01/14 01:41:27;;;;;;;15.27;6.00;;;;;;;5.06;100.00;103465.59;4916103;29;20048;-80
2022/01/14 01:43:54;;;;;;;18.50;6.25;;;;;;;5.03;100.00;103468.28;4901219;29;20131;-80
2022/01/14 01:46:23;;;;;;;20.23;6.95;;;;;;;5.01;100.00;103467.50;4878087;29;1091715;-79
2022/01/14 01:48:50;;;;;;;13.75;6.63;;;;;;;5.01;100.00;103459.63;4900801;29;20036;-80
2022/01/14 01:51:17;;;;;;;19.73;7.03;;;;;;;4.97;100.00;103452.81;4925561;29;20055;-79
2022/01/14 01:53:42;;;;;;;17.80;7.55;;;;;;;5.06;100.00;103469.06;4932737;29;20032;-80
2022/01/14 01:56:08;;;;;;;23.05;6.72;;;;;;;5.06;100.00;103463.84;4912290;29;20032;-79
2022/01/14 01:58:33;;;;;;;11.57;6.68;;;;;;;5.06;100.00;103470.84;4914073;29;20730;-79
2022/01/14 02:00:59;;;;;;;15.27;7.72;;;;;;;5.08;100.00;103461.16;4915727;29;20068;-79
2022/01/14 02:03:24;;;;;;;15.63;7.20;;;;;;;5.07;100.00;103467.28;4882757;29;20445;-79
2022/01/14 02:05:50;;;;;;;13.45;7.25;;;;;;;5.05;100.00;103469.09;4918047;29;20028;-79
2022/01/14 02:08:15;;;;;;;18.63;7.22;;;;;;;4.98;100.00;103449.28;4929950;29;20075;-79
2022/01/14 02:10:41;;;;;;;13.88;7.25;;;;;;;4.98;100.00;103459.75;4926493;29;20389;-80
2022/01/14 02:13:07;;;;;;;16.75;7.40;;;;;;;4.93;100.00;103457.28;4906865;29;20036;-79
2022/01/14 02:16:00;;;;;;;15.85;7.50;;;;;;;5.02;100.00;103467.44;4913865;29;20035;-79
2022/01/14 02:18:33;;;;;;;15.88;6.75;;;;;;;5.04;100.00;103456.94;4927796;29;20036;-79
2022/01/14 02:23:51;;;;;;;17.35;6.18;;;;;;;5.04;100.00;103476.09;4916450;29;20099;-79
2022/01/14 02:26:18;;;;;;;19.10;7.28;;;;;;;4.93;100.00;103457.28;4911523;29;20130;-79
2022/01/14 02:28:45;;;;;;;17.27;7.13;;;;;;;4.87;100.00;103440.00;4907168;29;20035;-79
2022/01/14 02:31:11;;;;;;;22.50;7.70;;;;;;;5.03;100.00;103463.06;4925721;29;20115;-80
2022/01/14 02:33:36;;;;;;;16.75;7.38;;;;;;;5.00;100.00;103453.56;4908444;29;20130;-79
2022/01/14 02:36:02;;;;;;;19.08;6.95;;;;;;;5.00;100.00;103457.94;4924286;29;20032;-79
2022/01/14 02:38:29;;;;;;;20.58;7.68;;;;;;;5.01;100.00;103470.09;4915563;29;20024;-79
2022/01/14 02:40:54;;;;;;;13.50;6.97;;;;;;;4.95;100.00;103461.56;4927780;29;20024;-79
2022/01/14 02:43:19;;;;;;;16.75;8.00;;;;;;;5.05;100.00;103463.88;4911805;29;20090;-79
2022/01/14 02:45:50;;;;;;;22.42;7.10;;;;;;;5.07;100.00;103467.28;4915716;29;20064;-79
2022/01/14 02:48:18;;;;;;;20.40;7.50;;;;;;;5.06;100.00;103461.22;4933153;29;20043;-79
2022/01/14 02:51:28;;;;;;;15.27;7.95;;;;;;;5.08;100.00;103455.94;4916065;29;20058;-79
2022/01/14 02:56:10;;;;;;;22.00;8.32;;;;;;;5.11;100.00;103450.59;4924473;29;20051;-79
2022/01/14 02:58:37;;;;;;;16.70;8.00;;;;;;;5.13;100.00;103461.88;4915085;29;20454;-79
2022/01/14 03:01:09;;;;;;;16.58;7.97;;;;;;;5.09;100.00;103447.16;4914916;29;20279;-79
2022/01/14 03:03:36;;;;;;;16.73;8.23;;;;;;;5.11;100.00;103424.41;4915134;29;20043;-79
2022/01/14 03:06:03;;;;;;;17.55;7.38;;;;;;;5.11;100.00;103427.88;4915569;29;20031;-79
2022/01/14 03:08:29;;;;;;;21.88;8.35;;;;;;;5.04;100.00;103428.16;4898741;29;20044;-79
2022/01/14 03:11:12;;;;;;;23.70;7.95;;;;;;;4.98;100.00;103402.16;4933957;29;20028;-79
2022/01/14 03:13:39;;;;;;;21.58;8.05;;;;;;;5.19;100.00;103438.09;4928722;29;20427;-79
2022/01/14 03:16:05;;;;;;;15.93;7.18;;;;;;;5.18;100.00;103425.06;4934083;29;20032;-79
2022/01/14 03:18:44;;;;;;;22.10;7.78;;;;;;;5.21;100.00;103436.28;4915590;29;20035;-79
2022/01/14 03:21:11;;;;;;;19.23;7.85;;;;;;;5.25;100.00;103437.91;4927141;29;20055;-79
2022/01/14 03:23:47;;;;;;;16.88;8.15;;;;;;;5.10;100.00;103414.84;4915830;29;20032;-79
2022/01/14 03:26:14;;;;;;;19.63;9.35;;;;;;;5.26;100.00;103431.75;4914035;29;20028;-79
2022/01/14 03:28:39;;;;;;;10.60;7.18;;;;;;;5.25;100.00;103427.44;4924094;29;20464;-79
2022/01/14 03:31:05;;;;;;;20.48;8.65;;;;;;;5.29;100.00;103442.13;4930788;29;20055;-79
2022/01/14 03:33:30;;;;;;;14.38;7.70;;;;;;;5.30;100.00;103438.59;4915198;29;20106;-79
2022/01/14 03:35:56;;;;;;;18.13;8.15;;;;;;;5.31;100.00;103427.22;4902247;29;20036;-79
2022/01/14 03:38:21;;;;;;;23.23;8.23;;;;;;;5.33;100.00;103438.50;4904314;29;20090;-79
2022/01/14 03:40:47;;;;;;;16.15;8.10;;;;;;;5.35;100.00;103433.19;4921865;29;20060;-80
2022/01/14 03:43:12;;;;;;;17.83;8.40;;;;;;;5.38;100.00;103437.47;4898600;29;20040;-79
2022/01/14 03:45:41;;;;;;;20.27;7.60;;;;;;;5.24;100.00;103403.91;4921918;29;20131;-79
2022/01/14 03:48:07;;;;;;;16.27;7.85;;;;;;;5.30;100.00;103415.03;4898648;29;20504;-79
2022/01/14 03:50:34;;;;;;;15.18;7.45;;;;;;;5.37;100.00;103418.28;4914885;29;20051;-79
2022/01/14 03:52:59;;;;;;;22.45;8.90;;;;;;;5.30;100.00;103409.78;4928485;29;20024;-79
2022/01/14 03:55:25;;;;;;;19.52;9.15;;;;;;;5.32;100.00;103404.50;4928730;29;20036;-79
2022/01/14 03:57:50;;;;;;;22.40;9.25;;;;;;;5.38;100.00;103417.41;4894408;29;20039;-79
2022/01/14 04:00:16;;;;;;;15.20;8.90;;;;;;;5.34;100.00;103406.16;4933549;29;20023;-79
2022/01/14 04:02:42;;;;;;;19.15;7.80;;;;;;;5.30;100.00;103390.63;4909314;29;20032;-79
2022/01/14 04:05:08;;;;;;;19.52;9.27;;;;;;;5.36;100.00;103396.50;4915213;29;20392;-79
2022/01/14 04:07:33;;;;;;;16.27;8.40;;;;;;;5.31;100.00;103380.09;4897780;29;20088;-79
2022/01/14 04:09:59;;;;;;;18.20;7.88;;;;;;;5.24;100.00;103351.53;4925457;29;20607;-79
2022/01/14 04:13:37;;;;;;;18.70;8.90;;;;;;;5.24;100.00;103368.09;4897607;29;20035;-79
2022/01/14 04:15:37;;;;;;;16.83;8.18;;;;;;;5.24;100.00;103367.25;4893700;29;20044;-79
2022/01/14 04:18:15;;;;;;;20.30;8.20;;;;;;;5.08;100.00;103357.31;4901144;29;20190;-80
2022/01/14 04:20:42;;;;;;;15.13;8.30;;;;;;;5.17;100.00;103371.00;4927207;29;20098;-79
2022/01/14 04:23:11;;;;;;;21.45;8.77;;;;;;;5.16;100.00;103364.88;4899595;29;20119;-79
2022/01/14 04:25:38;;;;;;;20.05;9.27;;;;;;;5.11;100.00;103365.03;4917236;29;20148;-79
2022/01/14 04:28:05;;;;;;;20.10;9.07;;;;;;;5.09;100.00;103373.88;4912030;29;20039;-79
2022/01/14 04:30:31;;;;;;;16.65;8.38;;;;;;;5.01;100.00;103349.72;4912320;29;20131;-79
2022/01/14 04:32:57;;;;;;;16.20;8.63;;;;;;;5.05;100.00;103361.78;4930631;29;20043;-79
2022/01/14 04:35:24;;;;;;;23.00;9.43;;;;;;;5.02;100.00;103359.28;4898120;29;20028;-80
2022/01/14 04:37:50;;;;;;;16.77;8.48;;;;;;;5.07;100.00;103367.81;4923573;29;20095;-79
2022/01/14 04:40:16;;;;;;;19.08;9.07;;;;;;;5.08;100.00;103353.84;4897885;29;20028;-79
2022/01/14 04:42:43;;;;;;;18.33;9.38;;;;;;;5.08;100.00;103351.22;4918307;29;20064;-79
2022/01/14 04:45:28;;;;;;;12.55;8.52;;;;;;;5.08;100.00;103349.47;4930137;29;20083;-79
2022/01/14 04:47:55;;;;;;;16.83;8.35;;;;;;;5.10;100.00;103349.41;4927580;29;20032;-80
2022/01/14 04:50:22;;;;;;;20.20;9.30;;;;;;;5.02;100.00;103326.09;4924391;29;20032;-80
2022/01/14 04:52:48;;;;;;;18.95;9.82;;;;;;;5.07;100.00;103333.81;4905753;29;20036;-80
2022/01/14 04:55:18;;;;;;;19.17;9.35;;;;;;;5.10;100.00;103336.34;4925633;29;20088;-80
2022/01/14 04:57:44;;;;;;;18.13;9.23;;;;;;;4.97;100.00;103314.97;4911432;29;20080;-80
2022/01/14 05:00:15;;;;;;;15.95;9.25;;;;;;;5.10;100.00;103328.47;4914693;29;20052;-79
2022/01/14 05:02:41;;;;;;;14.48;9.05;;;;;;;5.11;100.00;103345.88;4928465;29;20071;-79
2022/01/14 05:05:08;;;;;;;24.45;9.93;;;;;;;5.10;100.00;103359.88;4930807;29;20379;-79
2022/01/14 05:07:34;;;;;;;17.98;9.57;;;;;;;5.03;100.00;103342.66;4913833;29;20036;-79
2022/01/14 05:12:33;;;;;;;18.70;9.10;;;;;;;5.12;100.00;103337.13;4923574;29;20043;-79
2022/01/14 05:15:00;;;;;;;23.93;9.47;;;;;;;5.03;100.00;103326.97;4912921;29;20043;-79
2022/01/14 05:17:25;;;;;;;19.23;10.43;;;;;;;5.11;100.00;103340.63;4897428;29;20028;-80
2022/01/14 05:19:51;;;;;;;15.65;9.10;;;;;;;5.11;100.00;103351.13;4913272;29;20042;-79
2022/01/14 05:22:17;;;;;;;19.00;9.70;;;;;;;5.01;100.00;103334.00;4912164;29;20028;-79
2022/01/14 05:24:44;;;;;;;20.05;10.02;;;;;;;5.14;100.00;103367.56;4914778;29;20554;-79
2022/01/14 05:27:09;;;;;;;18.13;8.93;;;;;;;5.16;100.00;103370.13;4909873;29;20044;-79
2022/01/14 05:29:35;;;;;;;17.77;9.43;;;;;;;4.99;100.00;103334.09;4913282;29;20499;-80
2022/01/14 05:32:04;;;;;;;24.35;9.65;;;;;;;5.12;100.00;103353.69;4897192;29;20650;-80
2022/01/14 05:34:35;;;;;;;19.58;9.13;;;;;;;5.01;100.00;103342.75;4899501;29;20036;-81
2022/01/14 05:37:02;;;;;;;22.40;9.50;;;;;;;5.13;100.00;103365.84;4921998;29;20059;-80
2022/01/14 05:39:28;;;;;;;24.70;9.07;;;;;;;5.13;100.00;103371.09;4918213;29;20048;-80
2022/01/14 05:41:55;;;;;;;19.27;9.27;;;;;;;5.16;100.00;103375.34;4905987;29;20388;-81
2022/01/14 05:44:23;;;;;;;18.60;8.80;;;;;;;4.91;100.00;103334.31;4905756;29;20032;-81
2022/01/14 05:46:49;;;;;;;23.25;9.40;;;;;;;5.15;100.00;103374.50;4916917;29;20520;-80
2022/01/14 05:49:14;;;;;;;25.50;9.68;;;;;;;5.19;100.00;103380.50;4898872;29;20056;-81
2022/01/14 05:51:40;;;;;;;21.05;9.48;;;;;;;5.18;100.00;103381.41;4915976;29;20036;-81
2022/01/14 05:54:05;;;;;;;22.67;8.90;;;;;;;5.22;100.00;103379.53;4899308;29;20054;-80
2022/01/14 05:56:30;;;;;;;12.07;7.95;;;;;;;5.22;100.00;103377.78;4915478;29;20480;-81
2022/01/14 05:58:56;;;;;;;17.95;7.68;;;;;;;5.20;100.00;103373.50;4921933;29;20036;-80
2022/01/14 06:01:21;;;;;;;14.50;8.45;;;;;;;5.22;100.00;103383.00;4923520;29;20038;-80
2022/01/14 06:03:47;;;;;;;16.83;9.10;;;;;;;5.25;100.00;103382.91;4899376;29;20039;-81
2022/01/14 06:06:12;;;;;;;17.75;8.93;;;;;;;5.17;100.00;103360.53;4918613;29;20556;-81
2022/01/14 06:08:38;;;;;;;15.02;8.07;;;;;;;5.20;100.00;103361.25;4909104;29;20038;-81
2022/01/14 06:11:03;;;;;;;15.20;7.95;;;;;;;5.14;100.00;103351.03;4905107;29;20044;-80
2022/01/14 06:13:29;;;;;;;13.40;7.70;;;;;;;5.25;100.00;103367.22;4907016;29;20039;-81
2022/01/14 06:15:54;;;;;;;18.77;7.95;;;;;;;5.25;100.00;103363.75;4910229;29;20040;-81
2022/01/14 06:18:20;;;;;;;19.15;9.10;;;;;;;5.17;100.00;103350.06;4910029;29;20496;-81
2022/01/14 06:20:46;;;;;;;17.70;8.40;;;;;;;5.27;100.00;103368.00;4914376;29;20028;-81
2022/01/14 06:23:12;;;;;;;14.98;8.02;;;;;;;5.20;100.00;103350.78;4916800;29;20051;-80
2022/01/14 06:25:38;;;;;;;20.40;8.68;;;;;;;5.26;100.00;103361.06;4910478;29;20087;-80
2022/01/14 06:28:03;;;;;;;15.77;7.68;;;;;;;5.21;100.00;103346.44;4914958;29;20563;-80
2022/01/14 06:30:29;;;;;;;18.30;8.70;;;;;;;5.29;100.00;103366.19;4907115;29;20035;-79
2022/01/14 06:32:56;;;;;;;18.48;7.65;;;;;;;5.28;100.00;103369.72;4917799;29;20036;-79
2022/01/14 06:35:22;;;;;;;15.73;7.13;;;;;;;5.30;100.00;103365.28;4888696;29;20027;-79
2022/01/14 06:37:48;;;;;;;17.60;7.00;;;;;;;5.29;100.00;103366.19;4904065;29;20086;-79
2022/01/14 06:40:14;;;;;;;18.65;7.32;;;;;;;5.27;100.00;103365.41;4903162;29;20024;-79
2022/01/14 06:42:40;;;;;;;13.65;7.07;;;;;;;5.28;100.00;103359.22;4923513;29;20044;-79
2022/01/14 06:45:07;;;;;;;17.75;7.72;;;;;;;5.26;100.00;103361.06;4913507;29;20584;-79
2022/01/14 06:47:32;;;;;;;19.48;7.20;;;;;;;5.16;100.00;103343.94;4911657;29;20028;-79
2022/01/14 06:49:58;;;;;;;11.57;7.53;;;;;;;5.28;100.00;103368.88;4896397;29;20068;-79
2022/01/14 06:52:24;;;;;;;17.67;5.93;;;;;;;5.23;100.00;103360.31;4912342;29;20028;-79
2022/01/14 06:54:50;;;;;;;13.10;6.55;;;;;;;5.34;100.00;103368.66;4902964;29;20040;-79
2022/01/14 06:57:15;;;;;;;10.60;6.00;;;;;;;5.31;100.00;103369.63;4898481;29;20032;-79
2022/01/14 06:59:41;;;;;;;15.18;6.35;;;;;;;5.36;100.00;103378.16;4897544;29;20392;-80
2022/01/14 07:02:06;;;;;;;11.82;6.43;;;;;;;5.33;100.00;103362.56;4900888;29;20067;-80
2022/01/14 07:04:34;;;;;;;21.02;6.43;;;;;;;5.34;100.00;103355.56;4899958;29;20033;-82
2022/01/14 07:06:59;;;;;;;13.05;5.75;;;;;;;5.34;100.00;103353.78;4908984;29;20036;-81
2022/01/14 07:09:25;;;;;;;12.52;5.93;;;;;;;5.28;100.00;103340.06;4902517;29;20511;-80
2022/01/14 07:11:57;;;;;;;13.70;5.57;;;;;;;5.38;100.00;103361.53;4902914;29;20474;-80
2022/01/14 07:14:23;;;;;;;21.02;7.65;;;;;;;5.29;100.00;103358.34;4900644;29;20357;-81
2022/01/14 07:16:49;;;;;;;20.70;7.45;;;;;;;5.32;100.00;103357.38;4904244;29;20036;-80
2022/01/14 07:19:16;;;;;;;14.75;6.05;;;;;;;5.33;100.00;103354.72;4916819;29;20048;-80
2022/01/14 07:21:42;;;;;;;21.38;5.78;;;;;;;5.41;100.00;103375.38;4909587;29;20033;-80
2022/01/14 07:24:09;;;;;;;9.35;5.53;;;;;;;5.42;100.00;103370.97;4916681;29;20038;-80
2022/01/14 07:26:35;;;;;;;16.27;5.45;;;;;;;5.44;100.00;103384.88;4880776;29;20032;-80
2022/01/14 07:29:00;;;;;;;20.80;5.93;;;;;;;5.33;100.00;103364.31;4907371;29;20602;-80
2022/01/14 07:31:25;;;;;;;14.40;4.43;;;;;;;5.32;100.00;103370.47;4917499;29;20032;-80
2022/01/14 07:33:51;;;;;;;11.00;4.30;;;;;;;5.29;100.00;103367.94;4904491;29;20040;-80
2022/01/14 07:36:16;;;;;;;15.32;3.83;;;;;;;5.22;100.00;103364.69;4889653;29;20040;-81
2022/01/14 07:38:41;;;;;;;8.55;3.00;;;;;;;5.36;100.00;103390.41;4903231;29;20033;-79
2022/01/14 07:41:07;;;;;;;8.15;3.10;;;;;;;5.34;100.00;103384.38;4909929;29;20044;-79
2022/01/14 07:43:34;;;;;;;7.88;2.88;;;;;;;5.36;100.00;103387.78;4904251;29;20044;-80
2022/01/14 07:46:00;;;;;;;12.13;2.75;;;;;;;5.30;100.00;103372.28;4916325;29;20058;-80
2022/01/14 07:48:25;;;;;;;7.93;2.80;;;;;;;5.43;100.00;103394.50;4905175;29;20040;-80
2022/01/14 07:50:51;;;;;;;10.50;3.35;;;;;;;5.46;100.00;103394.38;4906433;29;20059;-80
2022/01/14 07:53:16;;;;;;;11.77;2.75;;;;;;;5.50;100.00;103390.75;4917191;29;20043;-80
2022/01/14 07:55:41;;;;;;;11.23;2.40;;;;;;;5.54;100.00;103388.91;4918815;29;20031;-80
2022/01/14 07:58:07;;;;;;;8.13;3.38;;;;;;;5.44;100.00;103377.88;4901711;29;20040;-80
2022/01/14 08:00:35;;;;;;;12.43;3.20;;;;;;;5.54;100.00;103386.28;4902683;29;20114;-80
2022/01/14 08:03:01;;;;;;;9.10;2.67;;;;;;;5.51;100.00;103389.88;4919448;29;20028;-80
2022/01/14 08:05:27;;;;;;;8.50;2.33;;;;;;;5.59;100.00;103394.81;4896108;29;20031;-80
2022/01/14 08:07:55;;;;;;;8.38;2.78;;;;;;;5.57;100.00;103384.41;4903425;29;20468;-80
2022/01/14 08:10:20;;;;;;;6.88;2.70;;;;;;;5.55;100.00;103372.25;4923033;29;20035;-80
2022/01/14 08:12:46;;;;;;;8.30;2.88;;;;;;;5.63;100.00;103385.09;4897149;29;20353;-80
2022/01/14 08:15:12;;;;;;;10.80;3.33;;;;;;;5.61;100.00;103372.03;4886486;29;20062;-81
2022/01/14 08:17:38;;;;;;;6.55;2.75;;;;;;;5.60;100.00;103365.09;4916732;29;20051;-80
2022/01/14 08:20:05;;;;;;;13.73;2.97;;;;;;;5.70;100.00;103381.31;4911582;29;20582;-80
2022/01/14 08:22:31;;;;;;;12.45;3.42;;;;;;;5.72;100.00;103379.50;4895053;29;20399;-80
2022/01/14 08:24:58;;;;;;;13.48;2.78;;;;;;;5.75;100.00;103380.25;4922847;29;20023;-80
2022/01/14 08:27:26;;;;;;;11.63;3.30;;;;;;;5.75;100.00;103380.25;4902126;29;20040;-80
2022/01/14 08:29:52;;;;;;;7.57;3.03;;;;;;;5.78;100.00;103374.88;4903975;29;20392;-80
2022/01/14 08:32:17;;;;;;;11.70;3.60;;;;;;;5.72;100.00;103358.53;4891071;29;20098;-79
2022/01/14 08:34:43;;;;;;;11.70;3.22;;;;;;;5.83;100.00;103386.97;4906766;29;20035;-80
2022/01/14 08:37:08;;;;;;;10.25;3.83;;;;;;;5.85;100.00;103390.41;4889964;29;20031;-80
2022/01/14 08:39:33;;;;;;;8.48;3.33;;;;;;;5.86;100.00;103392.97;4919324;29;20129;-80
2022/01/14 08:41:59;;;;;;;15.40;3.53;;;;;;;5.76;100.00;103387.19;4899137;29;20031;-80
2022/01/14 08:44:25;;;;;;;9.65;3.28;;;;;;;5.78;100.00;103392.38;4884183;29;20546;-80
2022/01/14 08:46:52;;;;;;;10.30;3.10;;;;;;;5.85;100.00;103406.97;4871892;29;20051;-80
2022/01/14 08:49:18;;;;;;;10.35;3.22;;;;;;;5.92;100.00;103418.09;4918912;29;20381;-80
2022/01/14 08:51:43;;;;;;;9.68;3.63;;;;;;;5.93;100.00;103409.31;4919990;29;20028;-80
2022/01/14 08:54:09;;;;;;;10.00;3.45;;;;;;;5.96;100.00;103409.22;4892261;29;20119;-80
2022/01/14 08:56:35;;;;;;;9.25;3.05;;;;;;;6.02;100.00;103414.25;4901162;29;20043;-80
2022/01/14 08:59:00;;;;;;;7.75;2.97;;;;;;;6.08;100.00;103419.25;4922077;29;20036;-80
2022/01/14 09:01:26;;;;;;;8.82;2.70;;;;;;;6.09;100.00;103414.88;4923473;29;20031;-79
2022/01/14 09:03:52;;;;;;;5.70;2.55;;;;;;;6.13;100.00;103422.56;4911194;29;20043;-79
2022/01/14 09:06:18;;;;;;;10.77;2.72;;;;;;;6.03;100.00;103405.50;4908682;29;20028;-80
2022/01/14 09:08:44;;;;;;;17.38;2.88;;;;;;;6.13;100.00;103426.97;4923248;29;20515;-80
2022/01/14 09:11:09;;;;;;;9.52;2.58;;;;;;;6.11;100.00;103413.91;4916526;29;20127;-79
2022/01/14 09:13:35;;;;;;;6.55;2.20;;;;;;;6.15;100.00;103410.25;4881242;29;20056;-79
2022/01/14 09:16:00;;;;;;;6.95;2.53;;;;;;;6.03;100.00;103383.63;4919819;29;20029;-80
2022/01/14 09:18:26;;;;;;;6.38;2.30;;;;;;;6.29;100.00;103401.00;4908889;29;20024;-79
2022/01/14 09:20:52;;;;;;;6.97;2.55;;;;;;;6.33;100.00;103397.34;4919487;29;20028;-80
2022/01/14 09:23:23;;;;;;;9.52;2.22;;;;;;;6.36;100.00;103371.84;4895225;29;20083;-80
2022/01/14 09:25:50;;;;;;;11.23;2.47;;;;;;;6.50;100.00;103394.91;4897324;29;20084;-80
2022/01/14 09:28:16;;;;;;;7.05;1.95;;;;;;;6.57;100.00;103396.38;4926068;29;20032;-80
2022/01/14 09:30:41;;;;;;;9.40;2.30;;;;;;;6.59;100.00;103404.19;4926942;29;20043;-80
2022/01/14 09:33:07;;;;;;;6.53;2.63;;;;;;;6.63;100.00;103411.03;4899166;29;20058;-80
2022/01/14 09:35:33;;;;;;;6.45;1.90;;;;;;;6.67;100.00;103409.13;4920549;29;20376;-80
2022/01/14 09:37:58;;;;;;;7.93;2.45;;;;;;;6.68;100.00;103408.22;4920581;29;20059;-80
2022/01/14 09:40:24;;;;;;;8.73;2.03;;;;;;;6.67;100.00;103410.00;4928168;29;20047;-80
2022/01/14 09:42:51;;;;;;;9.88;1.92;;;;;;;6.53;100.00;103384.31;4928141;29;20031;-80
2022/01/14 09:45:18;;;;;;;9.82;2.33;;;;;;;6.66;100.00;103404.78;4904481;29;20511;-80
2022/01/14 09:47:47;;;;;;;9.48;3.33;;;;;;;6.64;100.00;103406.63;4898476;29;20029;-80
2022/01/14 09:50:13;;;;;;;11.07;3.85;;;;;;;6.65;100.00;103416.22;4907331;29;20115;-79
2022/01/14 09:52:39;;;;;;;13.63;2.20;;;;;;;6.71;100.00;103435.19;4882313;29;20115;-79
2022/01/14 09:55:04;;;;;;;6.53;1.80;;;;;;;6.76;100.00;103438.47;4896618;29;20091;-80
2022/01/14 09:57:30;;;;;;;11.60;2.67;;;;;;;6.76;100.00;103442.88;4903535;29;20503;-79
2022/01/14 09:59:55;;;;;;;4.45;2.22;;;;;;;6.77;100.00;103426.19;4893769;29;20118;-80
2022/01/14 10:02:35;;;;;;;3.00;1.63;;;;;;;6.83;100.00;103444.34;4906143;29;20442;-80
2022/01/14 10:05:02;;;;;;;7.72;2.00;;;;;;;6.78;100.00;103443.69;4905845;29;20111;-80
2022/01/14 10:07:27;;;;;;;11.43;3.53;;;;;;;6.64;100.00;103417.13;4907582;29;20045;-80
2022/01/14 10:10:00;;;;;;;17.08;2.03;;;;;;;6.78;100.00;103433.19;4908624;29;20048;-80
2022/01/14 10:12:31;;;;;;;6.22;1.73;;;;;;;6.79;100.00;103429.63;4906656;29;20459;-80
2022/01/14 10:15:00;;;;;;;11.75;1.90;;;;;;;6.77;100.00;103427.09;4904873;29;20030;-80
2022/01/14 10:17:38;;;;;;;7.70;1.58;;;;;;;6.82;100.00;103440.03;4909237;29;20484;-80
2022/01/14 10:20:05;;;;;;;9.98;2.75;;;;;;;6.85;100.00;103432.00;4907009;29;20429;-80
2022/01/14 10:22:33;;;;;;;7.07;1.80;;;;;;;6.92;100.00;103449.22;4910102;29;20126;-80
2022/01/14 10:25:03;;;;;;;9.35;1.92;;;;;;;6.93;100.00;103437.81;4908725;29;20068;-80
2022/01/14 10:27:31;;;;;;;12.35;2.40;;;;;;;6.99;100.00;103441.97;4907627;29;20044;-80
2022/01/14 10:30:16;;;;;;;10.10;2.10;;;;;;;7.00;100.00;103456.78;4909697;29;20033;-80
2022/01/14 10:32:44;;;;;;;8.30;1.90;;;;;;;6.87;100.00;103452.94;4905989;29;20119;-80
2022/01/14 10:35:13;;;;;;;8.45;3.42;;;;;;;7.00;100.00;103468.13;4904033;29;20036;-80
2022/01/14 10:37:38;;;;;;;5.28;1.42;;;;;;;7.00;100.00;103455.00;4903857;29;20131;-80
2022/01/14 10:40:16;;;;;;;11.63;2.80;;;;;;;7.08;100.00;103474.88;4905202;29;20413;-80
2022/01/14 10:42:43;;;;;;;10.73;2.47;;;;;;;7.13;100.00;103473.75;4904918;29;20064;-80
2022/01/14 10:45:27;;;;;;;7.20;1.73;;;;;;;7.13;100.00;103475.53;4910919;29;20028;-80
2022/01/14 10:47:55;;;;;;;5.50;1.73;;;;;;;7.16;100.00;103473.63;4923237;29;20032;-80
2022/01/14 10:50:47;;;;;;;14.45;2.38;;;;;;;7.24;100.00;103477.72;4924220;29;20501;-80
2022/01/14 10:53:17;;;;;;;10.52;1.83;;;;;;;7.11;100.00;103449.31;4921451;29;20122;-80
2022/01/14 10:55:48;;;;;;;6.25;1.52;;;;;;;7.13;100.00;103463.25;4924639;29;20063;-79
2022/01/14 10:58:13;;;;;;;;;;;;;;;7.20;100.00;103471.72;4915915;29;20036;-80
2022/01/14 11:00:43;;;;;;;9.50;1.83;;;;;;;7.19;100.00;103456.88;4925314;29;19918;-80
2022/01/14 11:03:09;;;;;;;7.63;1.73;;;;;;;7.16;100.00;103454.38;4924989;29;20046;-80
2022/01/14 11:05:35;;;;;;;7.25;1.88;;;;;;;7.22;100.00;103462.84;4891867;29;20039;-80
2022/01/14 11:08:01;;;;;;;6.53;1.80;;;;;;;7.20;100.00;103448.94;4910027;29;20036;-80
2022/01/14 11:10:29;;;;;;;7.15;1.30;;;;;;;7.23;100.00;103463.72;4907766;29;20040;-81
2022/01/14 11:12:56;;;;;;;5.90;1.80;;;;;;;7.15;100.00;103443.03;4912266;29;20036;-80
2022/01/14 11:15:24;;;;;;;11.32;1.95;;;;;;;7.33;100.00;103464.19;4900439;29;20062;-81
2022/01/14 11:17:52;;;;;;;6.68;1.98;;;;;;;7.35;100.00;103457.94;4914394;29;20443;-81
2022/01/14 11:20:25;;;;;;;12.63;2.00;;;;;;;7.35;100.00;103463.19;4921445;29;20060;-81
2022/01/14 11:26:07;;;;;;;4.18;2.03;;;;;;;7.32;100.00;103442.31;4922090;29;20108;-81
2022/01/14 11:28:39;;;;;;;6.38;1.60;;;;;;;7.40;100.00;103448.13;4915852;29;20066;-81
2022/01/14 11:31:25;;;;;;;7.80;2.22;;;;;;;7.40;100.00;103444.59;4900585;29;20043;-81
2022/01/14 11:33:51;;;;;;;17.73;2.92;;;;;;;7.31;100.00;103442.38;4907809;29;20056;-81
2022/01/14 11:36:16;;;;;;;10.07;2.70;;;;;;;7.36;100.00;103428.13;4903758;29;20074;-81
2022/01/14 11:38:44;;;;;;;8.98;1.75;;;;;;;7.38;100.00;103438.56;4882114;29;20038;-81
2022/01/14 11:41:16;;;;;;;18.15;2.65;;;;;;;7.41;100.00;103431.41;4904030;29;20023;-81
2022/01/14 11:43:44;;;;;;;7.75;1.55;;;;;;;7.54;100.00;103462.44;4903688;29;20028;-81
2022/01/14 11:46:13;;;;;;;10.20;2.38;;;;;;;7.40;100.00;103452.50;4918427;29;20752;-81
2022/01/14 11:48:48;;;;;;;18.60;2.42;;;;;;;7.42;100.00;103442.78;4921312;29;20484;-81